createdAt,value
2023-02-12T00:01:33.711Z,8.00
2023-02-12T00:04:01.953Z,8.00
2023-02-12T00:06:30.075Z,8.00
2023-02-12T00:09:00.867Z,8.00
2023-02-12T00:11:31.428Z,8.00
2023-02-12T00:13:59.860Z,8.00
2023-02-12T00:16:29.725Z,8.00
2023-02-12T00:18:59.977Z,8.00
2023-02-12T00:21:28.500Z,8.00
2023-02-12T00:23:59.199Z,8.00
2023-02-12T00:26:27.559Z,8.00
2023-02-12T00:28:56.556Z,8.00
2023-02-12T00:31:28.179Z,8.00
2023-02-12T00:34:00.482Z,8.00
2023-02-12T00:36:30.703Z,8.00
2023-02-12T00:39:01.436Z,8.00
2023-02-12T00:41:32.296Z,8.00
2023-02-12T00:44:00.971Z,7.90
2023-02-12T00:46:29.188Z,7.90
2023-02-12T00:49:01.168Z,7.90
2023-02-12T00:51:29.387Z,7.90
2023-02-12T00:53:57.478Z,7.90
2023-02-12T00:56:26.066Z,7.90
2023-02-12T00:58:54.237Z,7.90
2023-02-12T01:01:24.873Z,7.90
2023-02-12T01:03:53.016Z,7.90
2023-02-12T01:06:24.680Z,7.90
2023-02-12T01:08:53.244Z,7.90
2023-02-12T01:11:22.010Z,7.90
2023-02-12T01:13:50.113Z,7.90
2023-02-12T01:16:20.165Z,7.80
2023-02-12T01:18:49.147Z,7.80
2023-02-12T01:21:19.687Z,7.80
2023-02-12T01:23:52.097Z,7.80
2023-02-12T01:26:22.763Z,7.80
2023-02-12T01:28:53.930Z,7.90
2023-02-12T01:31:25.106Z,7.80
2023-02-12T01:33:55.641Z,7.80
2023-02-12T01:36:24.164Z,7.80
2023-02-12T01:38:53.628Z,7.80
2023-02-12T01:41:24.947Z,7.80
2023-02-12T01:44:11.176Z,7.80
2023-02-12T01:46:42.965Z,7.70
2023-02-12T01:49:15.499Z,7.70
2023-02-12T01:51:47.776Z,7.70
2023-02-12T01:54:20.470Z,7.70
2023-02-12T01:56:49.164Z,7.70
2023-02-12T01:59:18.605Z,7.70
2023-02-12T02:01:47.054Z,7.70
2023-02-12T02:04:22.319Z,7.70
2023-02-12T02:06:55.023Z,7.70
2023-02-12T02:09:26.506Z,7.70
2023-02-12T02:12:14.274Z,7.70
2023-02-12T02:14:45.525Z,7.60
2023-02-12T02:17:39.658Z,7.60
2023-02-12T02:20:44.361Z,7.70
2023-02-12T02:23:41.241Z,7.60
2023-02-12T02:26:23.691Z,7.60
2023-02-12T02:29:05.675Z,7.60
2023-02-12T02:31:41.479Z,7.60
2023-02-12T02:34:16.887Z,7.60
2023-02-12T02:37:00.569Z,7.60
2023-02-12T02:39:38.684Z,7.50
2023-02-12T02:42:12.124Z,7.50
2023-02-12T02:44:45.269Z,7.50
2023-02-12T02:47:16.010Z,7.50
2023-02-12T02:49:51.150Z,7.50
2023-02-12T02:52:23.626Z,7.40
2023-02-12T02:54:58.244Z,7.40
2023-02-12T02:57:29.375Z,7.40
2023-02-12T03:00:04.003Z,7.40
2023-02-12T03:02:37.278Z,7.40
2023-02-12T03:05:10.704Z,7.40
2023-02-12T03:07:42.382Z,7.30
2023-02-12T03:10:15.898Z,7.40
2023-02-12T03:12:49.848Z,7.30
2023-02-12T03:15:25.269Z,7.30
2023-02-12T03:17:59.650Z,7.30
2023-02-12T03:20:31.405Z,7.30
2023-02-12T03:23:05.469Z,7.30
2023-02-12T03:25:39.348Z,7.30
2023-02-12T03:28:16.279Z,7.30
2023-02-12T03:30:53.760Z,7.30
2023-02-12T03:33:34.567Z,7.20
2023-02-12T03:36:08.150Z,7.20
2023-02-12T03:38:43.920Z,7.20
2023-02-12T03:41:17.192Z,7.20
2023-02-12T03:43:50.843Z,7.20
2023-02-12T03:46:26.466Z,7.20
2023-02-12T03:49:02.787Z,7.20
2023-02-12T03:51:35.801Z,7.20
2023-02-12T03:54:04.988Z,7.20
2023-02-12T03:56:42.610Z,7.20
2023-02-12T03:59:10.968Z,7.20
2023-02-12T04:01:42.303Z,7.20
2023-02-12T04:04:12.603Z,7.20
2023-02-12T04:06:43.798Z,7.20
2023-02-12T04:09:13.545Z,7.20
2023-02-12T04:11:55.470Z,7.20
2023-02-12T04:14:32.168Z,7.20
2023-02-12T04:17:07.067Z,7.10
2023-02-12T04:19:56.297Z,7.20
2023-02-12T04:22:34.150Z,7.10
2023-02-12T04:25:16.829Z,7.10
2023-02-12T04:27:53.292Z,7.10
2023-02-12T04:30:25.024Z,7.10
2023-02-12T04:33:01.770Z,7.10
2023-02-12T04:35:34.748Z,7.10
2023-02-12T04:38:10.119Z,7.10
2023-02-12T04:40:41.821Z,7.10
2023-02-12T04:43:12.738Z,7.10
2023-02-12T04:45:41.022Z,7.10
2023-02-12T04:48:09.176Z,7.00
2023-02-12T04:50:42.760Z,7.00
2023-02-12T04:53:11.579Z,7.00
2023-02-12T04:55:39.625Z,7.00
2023-02-12T04:58:08.152Z,7.00
2023-02-12T05:00:36.592Z,7.00
2023-02-12T05:03:06.981Z,7.00
2023-02-12T05:05:35.263Z,7.00
2023-02-12T05:08:07.502Z,7.00
2023-02-12T05:10:35.637Z,7.00
2023-02-12T05:13:03.709Z,7.00
2023-02-12T05:15:31.777Z,7.00
2023-02-12T05:17:59.940Z,7.00
2023-02-12T05:20:30.517Z,7.00
2023-02-12T05:23:00.625Z,7.00
2023-02-12T05:25:31.912Z,7.00
2023-02-12T05:28:00.128Z,7.00
2023-02-12T05:30:30.537Z,7.00
2023-02-12T05:32:58.648Z,6.90
2023-02-12T05:35:29.141Z,7.00
2023-02-12T05:37:57.241Z,6.90
2023-02-12T05:40:25.307Z,6.90
2023-02-12T05:42:54.710Z,6.90
2023-02-12T05:45:27.843Z,6.90
2023-02-12T05:47:58.937Z,6.90
2023-02-12T05:50:27.311Z,6.90
2023-02-12T05:53:01.286Z,6.90
2023-02-12T05:55:29.631Z,6.90
2023-02-12T05:57:59.046Z,6.90
2023-02-12T06:00:27.369Z,6.90
2023-02-12T06:02:55.486Z,6.90
2023-02-12T06:05:23.597Z,6.90
2023-02-12T06:07:51.672Z,6.90
2023-02-12T06:10:20.178Z,6.90
2023-02-12T06:12:48.278Z,6.90
2023-02-12T06:15:17.928Z,6.90
2023-02-12T06:17:45.994Z,6.90
2023-02-12T06:20:16.225Z,6.90
2023-02-12T06:22:46.393Z,6.90
2023-02-12T06:25:14.515Z,6.90
2023-02-12T06:27:42.584Z,6.90
2023-02-12T06:30:12.082Z,6.90
2023-02-12T06:32:44.070Z,6.80
2023-02-12T06:35:12.217Z,6.90
2023-02-12T06:37:40.292Z,6.90
2023-02-12T06:40:09.416Z,6.90
2023-02-12T06:42:37.487Z,6.90
2023-02-12T06:45:06.256Z,6.90
2023-02-12T06:47:34.336Z,6.90
2023-02-12T06:50:07.683Z,6.90
2023-02-12T06:52:35.777Z,6.90
2023-02-12T06:55:03.980Z,6.90
2023-02-12T06:57:32.327Z,6.90
2023-02-12T07:00:00.517Z,6.90
2023-02-12T07:02:28.658Z,6.90
2023-02-12T07:04:56.773Z,6.90
2023-02-12T07:07:26.221Z,6.90
2023-02-12T07:09:54.346Z,6.90
2023-02-12T07:12:22.481Z,6.90
2023-02-12T07:14:50.538Z,6.90
2023-02-12T07:17:20.696Z,6.90
2023-02-12T07:19:48.791Z,6.90
2023-02-12T07:22:19.302Z,6.90
2023-02-12T07:24:49.307Z,6.90
2023-02-12T07:27:17.556Z,6.90
2023-02-12T07:29:45.632Z,6.90
2023-02-12T07:32:14.493Z,7.00
2023-02-12T07:34:42.674Z,7.00
2023-02-12T07:37:10.931Z,7.00
2023-02-12T07:39:41.322Z,7.00
2023-02-12T07:42:15.114Z,7.00
2023-02-12T07:44:50.399Z,7.00
2023-02-12T07:47:20.875Z,7.00
2023-02-12T07:49:48.985Z,7.00
2023-02-12T07:52:17.098Z,7.00
2023-02-12T07:54:45.225Z,7.00
2023-02-12T07:57:14.698Z,7.00
2023-02-12T07:59:42.850Z,7.10
2023-02-12T08:02:11.112Z,7.10
2023-02-12T08:04:41.552Z,7.10
2023-02-12T08:07:12.174Z,7.10
2023-02-12T08:09:40.354Z,7.10
2023-02-12T08:12:09.183Z,7.10
2023-02-12T08:14:38.720Z,7.10
2023-02-12T08:17:08.417Z,7.10
2023-02-12T08:19:36.854Z,7.20
2023-02-12T08:22:07.533Z,7.10
2023-02-12T08:24:37.779Z,7.20
2023-02-12T08:27:06.835Z,7.20
2023-02-12T08:29:34.969Z,7.20
2023-02-12T08:32:10.591Z,7.20
2023-02-12T08:34:40.928Z,7.20
2023-02-12T08:37:09.191Z,7.20
2023-02-12T08:39:39.810Z,7.30
2023-02-12T08:42:07.895Z,7.30
2023-02-12T08:44:36.800Z,7.30
2023-02-12T08:47:07.151Z,7.30
2023-02-12T08:49:35.400Z,7.40
2023-02-12T08:52:03.643Z,7.40
2023-02-12T08:54:32.810Z,7.40
2023-02-12T08:57:02.244Z,7.40
2023-02-12T08:59:30.803Z,7.50
2023-02-12T09:01:59.498Z,7.50
2023-02-12T09:04:31.508Z,7.50
2023-02-12T09:06:59.697Z,7.60
2023-02-12T09:09:27.990Z,7.60
2023-02-12T09:11:56.123Z,7.60
2023-02-12T09:14:25.157Z,7.60
2023-02-12T09:16:54.300Z,7.70
2023-02-12T09:19:22.910Z,7.70
2023-02-12T09:21:56.666Z,7.70
2023-02-12T09:24:25.693Z,7.80
2023-02-12T09:26:54.183Z,7.80
2023-02-12T09:29:22.389Z,7.90
2023-02-12T09:31:50.765Z,7.90
2023-02-12T09:34:19.145Z,7.90
2023-02-12T09:36:47.324Z,8.00
2023-02-12T09:39:19.151Z,8.00
2023-02-12T09:42:18.793Z,8.10
2023-02-12T09:44:56.918Z,8.10
2023-02-12T09:47:31.781Z,8.10
2023-02-12T09:50:25.218Z,8.20
2023-02-12T09:52:57.932Z,8.30
2023-02-12T09:55:30.970Z,8.30
2023-02-12T09:57:59.372Z,8.40
2023-02-12T10:00:31.888Z,8.40
2023-02-12T10:03:05.811Z,8.40
2023-02-12T10:05:39.098Z,8.40
2023-02-12T10:08:34.618Z,8.50
2023-02-12T10:14:02.233Z,8.50
2023-02-12T10:16:47.725Z,8.60
2023-02-12T10:19:51.699Z,8.60
2023-02-12T10:22:51.369Z,8.70
2023-02-12T10:25:42.951Z,8.70
2023-02-12T10:28:24.409Z,8.80
2023-02-12T10:31:00.466Z,8.80
2023-02-12T10:33:42.140Z,8.80
2023-02-12T10:36:25.450Z,8.90
2023-02-12T10:39:06.555Z,8.90
2023-02-12T10:41:42.377Z,9.00
2023-02-12T10:44:11.569Z,9.00
2023-02-12T10:46:41.116Z,9.10
2023-02-12T10:49:12.649Z,9.10
2023-02-12T10:51:55.314Z,9.20
2023-02-12T10:54:41.255Z,9.20
2023-02-12T10:57:20.557Z,9.30
2023-02-12T10:59:55.678Z,9.40
2023-02-12T11:02:28.747Z,9.40
2023-02-12T11:05:01.893Z,9.40
2023-02-12T11:07:30.478Z,9.40
2023-02-12T11:10:22.539Z,9.50
2023-02-12T11:12:50.815Z,9.60
2023-02-12T11:15:21.357Z,9.60
2023-02-12T11:18:00.176Z,9.60
2023-02-12T11:20:33.890Z,9.60
2023-02-12T11:23:06.627Z,9.60
2023-02-12T11:25:39.031Z,9.70
2023-02-12T11:28:18.289Z,9.70
2023-02-12T11:30:54.283Z,9.70
2023-02-12T11:33:27.404Z,9.80
2023-02-12T11:35:58.512Z,9.80
2023-02-12T11:38:31.145Z,9.80
2023-02-12T11:41:06.273Z,9.80
2023-02-12T11:43:39.575Z,9.90
2023-02-12T11:46:09.409Z,9.90
2023-02-12T11:48:41.155Z,9.90
2023-02-12T11:51:19.337Z,10.00
2023-02-12T11:53:51.497Z,10.00
2023-02-12T11:56:20.290Z,10.00
2023-02-12T11:58:49.692Z,10.00
2023-02-12T12:01:21.986Z,10.10
2023-02-12T12:04:00.506Z,10.10
2023-02-12T12:06:34.361Z,10.20
2023-02-12T12:09:11.183Z,10.30
2023-02-12T12:11:49.088Z,10.40
2023-02-12T12:14:23.726Z,10.40
2023-02-12T12:17:14.665Z,10.40
2023-02-12T12:19:53.358Z,10.40
2023-02-12T12:22:34.240Z,10.40
2023-02-12T12:25:10.458Z,10.40
2023-02-12T12:28:05.805Z,10.40
2023-02-12T12:30:54.995Z,10.40
2023-02-12T12:33:31.901Z,10.40
2023-02-12T12:36:36.354Z,10.40
2023-02-12T12:39:17.324Z,10.50
2023-02-12T12:41:59.189Z,10.50
2023-02-12T12:44:51.346Z,10.50
2023-02-12T12:47:27.798Z,10.50
2023-02-12T12:50:10.400Z,10.50
2023-02-12T12:52:57.451Z,10.60
2023-02-12T12:55:50.059Z,10.70
2023-02-12T12:58:30.353Z,10.70
2023-02-12T13:01:30.452Z,10.70
2023-02-12T13:04:22.109Z,10.70
2023-02-12T13:07:02.042Z,10.70
2023-02-12T13:10:00.164Z,10.80
2023-02-12T13:12:38.935Z,10.80
2023-02-12T13:15:18.562Z,10.80
2023-02-12T13:17:54.210Z,10.80
2023-02-12T13:20:33.187Z,10.80
2023-02-12T13:23:05.378Z,10.80
2023-02-12T13:25:42.831Z,10.80
2023-02-12T13:28:18.171Z,10.80
2023-02-12T13:30:51.903Z,10.80
2023-02-12T13:33:23.674Z,10.80
2023-02-12T13:36:00.127Z,10.80
2023-02-12T13:38:36.547Z,10.90
2023-02-12T13:41:09.059Z,10.90
2023-02-12T13:43:52.740Z,10.80
2023-02-12T13:46:30.637Z,10.80
2023-02-12T13:49:08.086Z,10.80
2023-02-12T13:51:45.099Z,10.80
2023-02-12T13:54:27.536Z,10.80
2023-02-12T13:57:00.138Z,10.80
2023-02-12T13:59:45.481Z,10.80
2023-02-12T14:02:43.584Z,10.80
2023-02-12T14:05:32.029Z,10.80
2023-02-12T14:08:03.594Z,10.80
2023-02-12T14:10:35.112Z,10.80
2023-02-12T14:13:18.919Z,10.80
2023-02-12T14:15:51.244Z,10.80
2023-02-12T14:18:28.823Z,10.70
2023-02-12T14:21:42.512Z,10.60
2023-02-12T14:24:50.231Z,10.60
2023-02-12T14:27:44.287Z,10.60
2023-02-12T14:30:35.729Z,10.50
2023-02-12T14:33:25.831Z,10.50
2023-02-12T14:36:20.533Z,10.50
2023-02-12T14:39:00.536Z,10.50
2023-02-12T14:41:41.869Z,10.40
2023-02-12T14:44:44.432Z,10.40
2023-02-12T14:47:53.065Z,10.40
2023-02-12T14:50:36.958Z,10.40
2023-02-12T14:53:22.391Z,10.40
2023-02-12T14:55:52.147Z,10.40
2023-02-12T14:58:21.973Z,10.40
2023-02-12T15:00:55.935Z,10.40
2023-02-12T15:03:30.793Z,10.30
2023-02-12T15:06:14.977Z,10.30
2023-02-12T15:08:46.869Z,10.30
2023-02-12T15:11:24.671Z,10.30
2023-02-12T15:14:00.328Z,10.30
2023-02-12T15:16:39.663Z,10.30
2023-02-12T15:19:39.006Z,10.20
2023-02-12T15:22:22.867Z,10.20
2023-02-12T15:24:51.192Z,10.20
2023-02-12T15:27:22.512Z,10.20
2023-02-12T15:29:52.786Z,10.20
2023-02-12T15:32:25.763Z,10.20
2023-02-12T15:34:56.442Z,10.20
2023-02-12T15:37:27.405Z,10.10
2023-02-12T15:40:00.257Z,10.10
2023-02-12T15:42:32.070Z,10.10
2023-02-12T15:45:20.346Z,10.10
2023-02-12T15:48:12.911Z,10.00
2023-02-12T15:50:53.265Z,10.00
2023-02-12T15:53:25.341Z,10.00
2023-02-12T15:55:54.516Z,10.00
2023-02-12T15:58:26.256Z,10.00
2023-02-12T16:00:55.757Z,10.00
2023-02-12T16:03:26.151Z,9.90
2023-02-12T16:06:01.293Z,9.90
2023-02-12T16:08:30.355Z,9.90
2023-02-12T16:11:13.793Z,9.90
2023-02-12T16:13:47.271Z,9.90
2023-02-12T16:16:24.951Z,9.90
2023-02-12T16:19:18.579Z,9.80
2023-02-12T16:21:51.348Z,9.80
2023-02-12T16:24:32.301Z,9.80
2023-02-12T16:27:08.449Z,9.80
2023-02-12T16:29:45.692Z,9.80
2023-02-12T16:32:38.574Z,9.80
2023-02-12T16:35:27.251Z,9.70
2023-02-12T16:38:01.171Z,9.70
2023-02-12T16:40:35.469Z,9.70
2023-02-12T16:43:22.737Z,9.70
2023-02-12T16:46:04.163Z,9.70
2023-02-12T16:48:37.670Z,9.70
2023-02-12T16:51:06.327Z,9.70
2023-02-12T16:53:46.951Z,9.70
2023-02-12T16:56:21.250Z,9.60
2023-02-12T16:58:51.350Z,9.60
2023-02-12T17:01:23.746Z,9.60
2023-02-12T17:03:53.066Z,9.60
2023-02-12T17:06:23.477Z,9.50
2023-02-12T17:08:53.529Z,9.50
2023-02-12T17:11:23.215Z,9.50
2023-02-12T17:13:53.516Z,9.50
2023-02-12T17:16:31.759Z,9.50
2023-02-12T17:19:00.656Z,9.50
2023-02-12T17:21:31.750Z,9.40
2023-02-12T17:24:01.435Z,9.40
2023-02-12T17:26:29.651Z,9.40
2023-02-12T17:29:05.296Z,9.40
2023-02-12T17:31:34.075Z,9.40
2023-02-12T17:34:02.401Z,9.40
2023-02-12T17:36:30.715Z,9.30
2023-02-12T17:38:58.908Z,9.30
2023-02-12T17:41:30.968Z,9.30
2023-02-12T17:43:59.160Z,9.30
2023-02-12T17:46:29.142Z,9.30
2023-02-12T17:48:57.529Z,9.30
2023-02-12T17:51:28.153Z,9.30
2023-02-12T17:53:58.600Z,9.30
2023-02-12T17:56:30.806Z,9.20
2023-02-12T17:58:59.052Z,9.20
2023-02-12T18:01:27.809Z,9.20
2023-02-12T18:03:59.375Z,9.20
2023-02-12T18:06:29.444Z,9.20
2023-02-12T18:08:58.900Z,9.20
2023-02-12T18:11:27.758Z,9.20
2023-02-12T18:14:00.050Z,9.20
2023-02-12T18:16:32.448Z,9.10
2023-02-12T18:19:03.996Z,9.10
2023-02-12T18:21:33.975Z,9.10
2023-02-12T18:24:02.666Z,9.10
2023-02-12T18:26:30.873Z,9.10
2023-02-12T18:29:00.794Z,9.10
2023-02-12T18:31:29.368Z,9.10
2023-02-12T18:33:57.688Z,9.00
2023-02-12T18:36:25.943Z,9.00
2023-02-12T18:38:54.705Z,9.00
2023-02-12T18:41:25.185Z,9.00
2023-02-12T18:43:53.730Z,9.00
2023-02-12T18:46:25.187Z,9.00
2023-02-12T18:48:53.632Z,8.90
2023-02-12T18:51:24.600Z,8.90
2023-02-12T18:53:55.740Z,8.90
2023-02-12T18:56:23.899Z,8.90
2023-02-12T18:58:57.118Z,8.90
2023-02-12T19:01:27.311Z,8.90
2023-02-12T19:04:00.216Z,8.80
2023-02-12T19:06:31.462Z,8.80
2023-02-12T19:09:02.474Z,8.80
2023-02-12T19:11:31.768Z,8.80
2023-02-12T19:14:00.357Z,8.80
2023-02-12T19:16:30.373Z,8.80
2023-02-12T19:19:02.738Z,8.80
2023-02-12T19:21:33.993Z,8.80
2023-02-12T19:24:03.929Z,8.80
2023-02-12T19:26:36.576Z,8.80
2023-02-12T19:29:07.885Z,8.80
2023-02-12T19:31:39.179Z,8.80
2023-02-12T19:34:13.416Z,8.70
2023-02-12T19:36:44.679Z,8.70
2023-02-12T19:39:15.708Z,8.70
2023-02-12T19:41:44.196Z,8.70
2023-02-12T19:44:18.908Z,8.70
2023-02-12T19:46:49.820Z,8.70
2023-02-12T19:49:20.980Z,8.70
2023-02-12T19:51:51.556Z,8.60
2023-02-12T19:54:21.410Z,8.60
2023-02-12T19:56:50.798Z,8.60
2023-02-12T19:59:23.407Z,8.60
2023-02-12T20:01:56.496Z,8.60
2023-02-12T20:04:27.513Z,8.60
2023-02-12T20:06:55.781Z,8.60
2023-02-12T20:09:24.626Z,8.60
2023-02-12T20:11:53.094Z,8.60
2023-02-12T20:14:22.667Z,8.60
2023-02-12T20:16:51.780Z,8.60
2023-02-12T20:19:26.028Z,8.60
2023-02-12T20:21:55.967Z,8.60
2023-02-12T20:24:29.627Z,8.60
2023-02-12T20:26:59.390Z,8.50
2023-02-12T20:29:27.976Z,8.60
2023-02-12T20:31:56.190Z,8.60
2023-02-12T20:34:25.962Z,8.50
2023-02-12T20:36:54.714Z,8.50
2023-02-12T20:39:23.563Z,8.50
2023-02-12T20:41:51.878Z,8.50
2023-02-12T20:44:22.383Z,8.50
2023-02-12T20:46:55.710Z,8.50
2023-02-12T20:49:28.664Z,8.50
2023-02-12T20:51:56.828Z,8.40
2023-02-12T20:54:25.871Z,8.40
2023-02-12T20:56:54.210Z,8.40
2023-02-12T20:59:22.482Z,8.40
2023-02-12T21:01:50.768Z,8.40
2023-02-12T21:04:20.735Z,8.40
2023-02-12T21:06:50.322Z,8.40
2023-02-12T21:09:20.894Z,8.30
2023-02-12T21:11:51.366Z,8.30
2023-02-12T21:14:22.824Z,8.40
2023-02-12T21:16:53.233Z,8.40
2023-02-12T21:19:22.104Z,8.40
2023-02-12T21:21:54.404Z,8.30
2023-02-12T21:24:24.656Z,8.30
2023-02-12T21:26:56.430Z,8.30
2023-02-12T21:29:29.197Z,8.30
2023-02-12T21:31:57.469Z,8.30
2023-02-12T21:34:25.953Z,8.30
2023-02-12T21:36:56.786Z,8.30
2023-02-12T21:39:27.558Z,8.30
2023-02-12T21:42:02.328Z,8.30
2023-02-12T21:44:32.229Z,8.30
2023-02-12T21:47:00.427Z,8.30
2023-02-12T21:49:28.897Z,8.30
2023-02-12T21:52:02.051Z,8.30
2023-02-12T21:54:31.072Z,8.30
2023-02-12T21:57:02.006Z,8.30
2023-02-12T21:59:33.277Z,8.30
2023-02-12T22:02:01.879Z,8.20
2023-02-12T22:04:32.255Z,8.30
2023-02-12T22:07:03.379Z,8.20
2023-02-12T22:09:34.126Z,8.20
2023-02-12T22:12:04.564Z,8.20
2023-02-12T22:14:32.851Z,8.20
2023-02-12T22:17:00.982Z,8.20
2023-02-12T22:19:31.427Z,8.20
2023-02-12T22:22:00.852Z,8.20
2023-02-12T22:24:31.076Z,8.20
2023-02-12T22:26:59.143Z,8.20
2023-02-12T22:29:27.240Z,8.20
2023-02-12T22:31:55.582Z,8.10
2023-02-12T22:34:26.151Z,8.10
2023-02-12T22:36:54.289Z,8.10
2023-02-12T22:39:29.564Z,8.10
2023-02-12T22:41:58.548Z,8.10
2023-02-12T22:44:26.903Z,8.10
2023-02-12T22:46:55.021Z,8.10
2023-02-12T22:49:25.377Z,8.10
2023-02-12T22:51:55.564Z,8.10
2023-02-12T22:54:27.308Z,8.10
2023-02-12T22:56:55.368Z,8.10
2023-02-12T22:59:23.517Z,8.10
2023-02-12T23:01:51.631Z,8.10
2023-02-12T23:04:22.149Z,8.10
2023-02-12T23:06:53.267Z,8.10
2023-02-12T23:09:23.423Z,8.10
2023-02-12T23:11:54.945Z,8.10
2023-02-12T23:14:23.292Z,8.00
2023-02-12T23:16:53.740Z,8.10
2023-02-12T23:19:24.224Z,8.10
2023-02-12T23:21:52.314Z,8.00
2023-02-12T23:24:20.392Z,8.00
2023-02-12T23:26:48.508Z,8.00
2023-02-12T23:29:18.023Z,8.00
2023-02-12T23:31:46.204Z,8.00
2023-02-12T23:34:14.387Z,8.00
2023-02-12T23:36:42.544Z,7.90
2023-02-12T23:39:13.086Z,7.90
2023-02-12T23:41:41.292Z,7.90
2023-02-12T23:44:10.759Z,7.90
2023-02-12T23:46:40.225Z,7.90
2023-02-12T23:49:08.462Z,7.80
2023-02-12T23:51:36.678Z,7.80
2023-02-12T23:54:04.927Z,7.80
2023-02-12T23:56:32.999Z,7.80
2023-02-12T23:59:01.117Z,7.80
